sensor_id;sensor_type;location;lat;lon;timestamp;temperature;humidity
18454;DHT22;9356;52.202;20.950;2023-09-19T00:00:58;19.40;99.90
18454;DHT22;9356;52.202;20.950;2023-09-19T00:02:10;19.40;99.90
18454;DHT22;9356;52.202;20.950;2023-09-19T00:03:18;17.40;99.90
18454;DHT22;9356;52.202;20.950;2023-09-19T00:04:26;19.40;99.90
18454;DHT22;9356;52.202;20.950;2023-09-19T00:05:34;19.40;99.90
18454;DHT22;9356;52.202;20.950;2023-09-19T00:06:42;19.40;99.90
18454;DHT22;9356;52.202;20.950;2023-09-19T00:07:57;19.40;99.90
18454;DHT22;9356;52.202;20.950;2023-09-19T00:09:03;19.30;99.90
18454;DHT22;9356;52.202;20.950;2023-09-19T00:10:26;16.80;99.90
18454;DHT22;9356;52.202;20.950;2023-09-19T00:11:39;19.30;99.90
18454;DHT22;9356;52.202;20.950;2023-09-19T00:12:47;19.30;99.90
18454;DHT22;9356;52.202;20.950;2023-09-19T00:13:58;18.00;99.90
18454;DHT22;9356;52.202;20.950;2023-09-19T00:15:02;19.30;99.90
18454;DHT22;9356;52.202;20.950;2023-09-19T00:16:14;19.30;99.90
18454;DHT22;9356;52.202;20.950;2023-09-19T00:17:19;19.20;99.90
18454;DHT22;9356;52.202;20.950;2023-09-19T00:18:29;19.30;99.90
18454;DHT22;9356;52.202;20.950;2023-09-19T00:19:38;19.30;99.90
18454;DHT22;9356;52.202;20.950;2023-09-19T00:20:50;19.30;99.90
18454;DHT22;9356;52.202;20.950;2023-09-19T00:21:58;19.30;99.90
18454;DHT22;9356;52.202;20.950;2023-09-19T00:23:15;19.30;99.90
18454;DHT22;9356;52.202;20.950;2023-09-19T00:24:18;19.30;99.90
18454;DHT22;9356;52.202;20.950;2023-09-19T00:25:26;19.30;99.90
18454;DHT22;9356;52.202;20.950;2023-09-19T00:26:34;19.30;99.90
18454;DHT22;9356;52.202;20.950;2023-09-19T00:27:54;19.30;99.90
18454;DHT22;9356;52.202;20.950;2023-09-19T00:29:07;19.20;99.90
18454;DHT22;9356;52.202;20.950;2023-09-19T00:30:15;19.20;99.90
18454;DHT22;9356;52.202;20.950;2023-09-19T00:31:41;19.20;99.90
18454;DHT22;9356;52.202;20.950;2023-09-19T00:32:51;19.20;99.90
18454;DHT22;9356;52.202;20.950;2023-09-19T00:33:58;19.20;99.90
18454;DHT22;9356;52.202;20.950;2023-09-19T00:35:07;19.20;99.90
18454;DHT22;9356;52.202;20.950;2023-09-19T00:36:14;19.20;99.90
18454;DHT22;9356;52.202;20.950;2023-09-19T00:37:39;19.20;99.90
18454;DHT22;9356;52.202;20.950;2023-09-19T00:38:54;19.20;99.90
18454;DHT22;9356;52.202;20.950;2023-09-19T00:40:02;20.40;99.90
18454;DHT22;9356;52.202;20.950;2023-09-19T00:41:07;19.20;99.90
18454;DHT22;9356;52.202;20.950;2023-09-19T00:42:18;19.30;99.90
18454;DHT22;9356;52.202;20.950;2023-09-19T00:43:30;19.20;99.90
18454;DHT22;9356;52.202;20.950;2023-09-19T00:44:39;19.20;99.90
18454;DHT22;9356;52.202;20.950;2023-09-19T00:45:55;19.20;99.90
18454;DHT22;9356;52.202;20.950;2023-09-19T00:47:06;19.20;99.90
18454;DHT22;9356;52.202;20.950;2023-09-19T00:48:23;19.20;99.90
18454;DHT22;9356;52.202;20.950;2023-09-19T00:49:30;19.40;99.90
18454;DHT22;9356;52.202;20.950;2023-09-19T00:50:49;19.20;99.90
18454;DHT22;9356;52.202;20.950;2023-09-19T00:52:01;19.20;99.90
18454;DHT22;9356;52.202;20.950;2023-09-19T00:53:15;19.00;99.90
18454;DHT22;9356;52.202;20.950;2023-09-19T00:54:27;19.30;99.90
18454;DHT22;9356;52.202;20.950;2023-09-19T00:55:35;19.10;99.90
18454;DHT22;9356;52.202;20.950;2023-09-19T00:56:53;19.10;99.90
18454;DHT22;9356;52.202;20.950;2023-09-19T00:57:59;19.10;99.90
18454;DHT22;9356;52.202;20.950;2023-09-19T00:59:19;19.10;99.90
18454;DHT22;9356;52.202;20.950;2023-09-19T01:00:33;19.10;99.90
18454;DHT22;9356;52.202;20.950;2023-09-19T01:01:42;19.00;99.90
18454;DHT22;9356;52.202;20.950;2023-09-19T01:03:11;19.00;99.90
18454;DHT22;9356;52.202;20.950;2023-09-19T01:04:18;21.80;99.90
18454;DHT22;9356;52.202;20.950;2023-09-19T01:05:23;19.00;99.90
18454;DHT22;9356;52.202;20.950;2023-09-19T01:06:34;19.00;99.90
18454;DHT22;9356;52.202;20.950;2023-09-19T01:08:06;19.10;99.90
18454;DHT22;9356;52.202;20.950;2023-09-19T01:09:19;18.80;99.90
18454;DHT22;9356;52.202;20.950;2023-09-19T01:10:31;19.00;99.90
18454;DHT22;9356;52.202;20.950;2023-09-19T01:11:47;19.00;99.90
18454;DHT22;9356;52.202;20.950;2023-09-19T01:13:03;19.00;99.90
18454;DHT22;9356;52.202;20.950;2023-09-19T01:14:25;19.00;99.90
18454;DHT22;9356;52.202;20.950;2023-09-19T01:15:51;19.00;99.90
18454;DHT22;9356;52.202;20.950;2023-09-19T01:17:27;19.00;99.90
18454;DHT22;9356;52.202;20.950;2023-09-19T01:18:49;18.90;99.90
18454;DHT22;9356;52.202;20.950;2023-09-19T01:20:19;19.00;99.90
18454;DHT22;9356;52.202;20.950;2023-09-19T01:21:41;19.00;99.90
18454;DHT22;9356;52.202;20.950;2023-09-19T01:23:16;19.00;99.90
18454;DHT22;9356;52.202;20.950;2023-09-19T01:26:31;19.00;99.90
18454;DHT22;9356;52.202;20.950;2023-09-19T01:28:30;19.00;99.90
18454;DHT22;9356;52.202;20.950;2023-09-19T01:29:49;19.00;99.90
18454;DHT22;9356;52.202;20.950;2023-09-19T01:31:02;19.00;99.90
18454;DHT22;9356;52.202;20.950;2023-09-19T01:32:27;19.00;99.90
18454;DHT22;9356;52.202;20.950;2023-09-19T01:34:02;16.90;99.90
18454;DHT22;9356;52.202;20.950;2023-09-19T01:35:15;19.00;99.90
18454;DHT22;9356;52.202;20.950;2023-09-19T01:36:22;19.90;99.90
18454;DHT22;9356;52.202;20.950;2023-09-19T01:37:34;19.10;99.90
18454;DHT22;9356;52.202;20.950;2023-09-19T01:38:47;19.00;99.90
18454;DHT22;9356;52.202;20.950;2023-09-19T01:39:55;19.10;99.90
18454;DHT22;9356;52.202;20.950;2023-09-19T01:41:09;19.10;99.90
18454;DHT22;9356;52.202;20.950;2023-09-19T01:42:35;19.10;99.90
18454;DHT22;9356;52.202;20.950;2023-09-19T01:43:53;19.00;99.90
18454;DHT22;9356;52.202;20.950;2023-09-19T01:45:03;19.00;99.90
18454;DHT22;9356;52.202;20.950;2023-09-19T01:46:21;19.00;99.90
18454;DHT22;9356;52.202;20.950;2023-09-19T01:47:48;19.00;99.90
18454;DHT22;9356;52.202;20.950;2023-09-19T01:49:27;19.00;99.90
18454;DHT22;9356;52.202;20.950;2023-09-19T01:50:55;19.00;99.90
18454;DHT22;9356;52.202;20.950;2023-09-19T01:52:11;19.00;99.90
18454;DHT22;9356;52.202;20.950;2023-09-19T01:53:26;18.90;99.90
18454;DHT22;9356;52.202;20.950;2023-09-19T01:54:52;18.90;99.90
18454;DHT22;9356;52.202;20.950;2023-09-19T01:56:12;18.90;99.90
18454;DHT22;9356;52.202;20.950;2023-09-19T01:57:42;18.90;99.90
18454;DHT22;9356;52.202;20.950;2023-09-19T01:58:56;19.00;99.90
18454;DHT22;9356;52.202;20.950;2023-09-19T02:00:18;18.90;99.90
18454;DHT22;9356;52.202;20.950;2023-09-19T02:01:35;19.00;99.90
18454;DHT22;9356;52.202;20.950;2023-09-19T02:03:06;16.50;99.90
18454;DHT22;9356;52.202;20.950;2023-09-19T02:04:14;18.90;99.90
18454;DHT22;9356;52.202;20.950;2023-09-19T02:05:26;18.90;99.90
18454;DHT22;9356;52.202;20.950;2023-09-19T02:06:35;18.90;99.90
18454;DHT22;9356;52.202;20.950;2023-09-19T02:07:42;19.00;99.90
18454;DHT22;9356;52.202;20.950;2023-09-19T02:08:51;18.90;99.90
18454;DHT22;9356;52.202;20.950;2023-09-19T02:09:55;19.00;99.90
18454;DHT22;9356;52.202;20.950;2023-09-19T02:11:02;17.00;99.90
18454;DHT22;9356;52.202;20.950;2023-09-19T02:12:10;19.00;99.90
18454;DHT22;9356;52.202;20.950;2023-09-19T02:13:19;19.00;99.90
18454;DHT22;9356;52.202;20.950;2023-09-19T02:15:18;19.00;99.90
18454;DHT22;9356;52.202;20.950;2023-09-19T02:16:29;19.00;99.90
18454;DHT22;9356;52.202;20.950;2023-09-19T02:17:34;18.90;99.90
18454;DHT22;9356;52.202;20.950;2023-09-19T02:18:44;18.80;99.90
18454;DHT22;9356;52.202;20.950;2023-09-19T02:20:03;18.90;99.90
18454;DHT22;9356;52.202;20.950;2023-09-19T02:21:14;18.90;99.90
18454;DHT22;9356;52.202;20.950;2023-09-19T02:22:25;18.90;99.90
18454;DHT22;9356;52.202;20.950;2023-09-19T02:24:01;18.80;99.90
18454;DHT22;9356;52.202;20.950;2023-09-19T02:25:10;18.80;99.90
18454;DHT22;9356;52.202;20.950;2023-09-19T02:26:19;18.70;99.90
18454;DHT22;9356;52.202;20.950;2023-09-19T02:27:27;18.80;99.90
18454;DHT22;9356;52.202;20.950;2023-09-19T02:28:30;18.80;99.90
18454;DHT22;9356;52.202;20.950;2023-09-19T02:29:38;19.10;99.90
18454;DHT22;9356;52.202;20.950;2023-09-19T02:31:08;20.60;99.90
18454;DHT22;9356;52.202;20.950;2023-09-19T02:32:19;18.80;99.90
18454;DHT22;9356;52.202;20.950;2023-09-19T02:33:26;18.90;99.90
18454;DHT22;9356;52.202;20.950;2023-09-19T02:34:35;18.90;99.90
18454;DHT22;9356;52.202;20.950;2023-09-19T02:35:42;18.90;99.90
18454;DHT22;9356;52.202;20.950;2023-09-19T02:36:47;18.80;99.90
18454;DHT22;9356;52.202;20.950;2023-09-19T02:37:51;18.90;99.90
18454;DHT22;9356;52.202;20.950;2023-09-19T02:38:54;18.90;99.90
18454;DHT22;9356;52.202;20.950;2023-09-19T02:39:59;18.90;99.90
18454;DHT22;9356;52.202;20.950;2023-09-19T02:41:21;18.90;99.90
18454;DHT22;9356;52.202;20.950;2023-09-19T02:42:25;18.80;99.90
18454;DHT22;9356;52.202;20.950;2023-09-19T02:43:29;18.80;99.90
18454;DHT22;9356;52.202;20.950;2023-09-19T02:44:46;18.80;99.90
18454;DHT22;9356;52.202;20.950;2023-09-19T02:45:50;18.80;99.90
18454;DHT22;9356;52.202;20.950;2023-09-19T02:46:58;18.80;99.90
18454;DHT22;9356;52.202;20.950;2023-09-19T02:48:05;18.80;99.90
18454;DHT22;9356;52.202;20.950;2023-09-19T02:49:14;18.80;99.90
18454;DHT22;9356;52.202;20.950;2023-09-19T02:50:24;18.80;99.90
18454;DHT22;9356;52.202;20.950;2023-09-19T02:51:26;18.80;99.90
18454;DHT22;9356;52.202;20.950;2023-09-19T02:52:33;18.80;99.90
18454;DHT22;9356;52.202;20.950;2023-09-19T02:53:38;16.40;99.90
18454;DHT22;9356;52.202;20.950;2023-09-19T02:54:44;18.80;99.90
18454;DHT22;9356;52.202;20.950;2023-09-19T02:55:48;18.70;99.90
18454;DHT22;9356;52.202;20.950;2023-09-19T02:56:54;18.80;99.90
18454;DHT22;9356;52.202;20.950;2023-09-19T02:57:57;18.70;99.90
18454;DHT22;9356;52.202;20.950;2023-09-19T02:59:03;18.70;99.90
18454;DHT22;9356;52.202;20.950;2023-09-19T03:00:07;18.70;99.90
18454;DHT22;9356;52.202;20.950;2023-09-19T03:01:13;18.70;99.90
18454;DHT22;9356;52.202;20.950;2023-09-19T03:02:16;18.70;99.90
18454;DHT22;9356;52.202;20.950;2023-09-19T03:03:23;18.40;99.90
18454;DHT22;9356;52.202;20.950;2023-09-19T03:04:31;18.70;99.90
18454;DHT22;9356;52.202;20.950;2023-09-19T03:05:35;18.70;99.90
18454;DHT22;9356;52.202;20.950;2023-09-19T03:06:41;18.70;99.90
18454;DHT22;9356;52.202;20.950;2023-09-19T03:07:47;18.70;99.90
18454;DHT22;9356;52.202;20.950;2023-09-19T03:08:58;18.70;99.90
18454;DHT22;9356;52.202;20.950;2023-09-19T03:10:09;18.70;99.90
18454;DHT22;9356;52.202;20.950;2023-09-19T03:11:43;18.70;99.90
18454;DHT22;9356;52.202;20.950;2023-09-19T03:12:54;18.60;99.90
18454;DHT22;9356;52.202;20.950;2023-09-19T03:13:59;18.70;99.90
18454;DHT22;9356;52.202;20.950;2023-09-19T03:15:06;18.70;99.90
18454;DHT22;9356;52.202;20.950;2023-09-19T03:16:11;18.70;99.90
18454;DHT22;9356;52.202;20.950;2023-09-19T03:17:18;18.60;99.90
18454;DHT22;9356;52.202;20.950;2023-09-19T03:18:22;18.60;99.90
18454;DHT22;9356;52.202;20.950;2023-09-19T03:19:33;18.60;99.90
18454;DHT22;9356;52.202;20.950;2023-09-19T03:20:42;18.60;99.90
18454;DHT22;9356;52.202;20.950;2023-09-19T03:21:48;20.30;99.90
18454;DHT22;9356;52.202;20.950;2023-09-19T03:22:56;19.20;99.90
18454;DHT22;9356;52.202;20.950;2023-09-19T03:24:04;20.40;99.90
18454;DHT22;9356;52.202;20.950;2023-09-19T03:25:10;18.60;99.90
18454;DHT22;9356;52.202;20.950;2023-09-19T03:26:21;19.30;99.90
18454;DHT22;9356;52.202;20.950;2023-09-19T03:27:25;18.60;99.90
18454;DHT22;9356;52.202;20.950;2023-09-19T03:28:35;18.60;99.90
18454;DHT22;9356;52.202;20.950;2023-09-19T03:29:43;18.60;99.90
18454;DHT22;9356;52.202;20.950;2023-09-19T03:30:46;18.60;99.90
18454;DHT22;9356;52.202;20.950;2023-09-19T03:31:55;18.60;99.90
18454;DHT22;9356;52.202;20.950;2023-09-19T03:32:58;18.60;99.90
18454;DHT22;9356;52.202;20.950;2023-09-19T03:34:05;18.50;99.90
18454;DHT22;9356;52.202;20.950;2023-09-19T03:35:13;18.50;99.90
18454;DHT22;9356;52.202;20.950;2023-09-19T03:36:18;18.60;99.90
18454;DHT22;9356;52.202;20.950;2023-09-19T03:37:22;18.50;99.90
18454;DHT22;9356;52.202;20.950;2023-09-19T03:38:26;18.50;99.90
18454;DHT22;9356;52.202;20.950;2023-09-19T03:39:33;18.50;99.90
18454;DHT22;9356;52.202;20.950;2023-09-19T03:40:38;18.50;99.90
18454;DHT22;9356;52.202;20.950;2023-09-19T03:41:47;18.50;99.90
18454;DHT22;9356;52.202;20.950;2023-09-19T03:42:50;18.50;99.90
18454;DHT22;9356;52.202;20.950;2023-09-19T03:44:02;18.50;99.90
18454;DHT22;9356;52.202;20.950;2023-09-19T03:45:09;18.40;99.90
18454;DHT22;9356;52.202;20.950;2023-09-19T03:46:21;18.50;99.90
18454;DHT22;9356;52.202;20.950;2023-09-19T03:47:24;18.50;99.90
18454;DHT22;9356;52.202;20.950;2023-09-19T03:48:35;18.50;99.90
18454;DHT22;9356;52.202;20.950;2023-09-19T03:49:50;18.80;99.90
18454;DHT22;9356;52.202;20.950;2023-09-19T03:51:02;18.40;99.90
18454;DHT22;9356;52.202;20.950;2023-09-19T03:52:08;18.40;99.90
18454;DHT22;9356;52.202;20.950;2023-09-19T03:53:18;18.40;99.90
18454;DHT22;9356;52.202;20.950;2023-09-19T03:54:25;18.40;99.90
18454;DHT22;9356;52.202;20.950;2023-09-19T03:55:29;19.00;99.90
18454;DHT22;9356;52.202;20.950;2023-09-19T03:56:39;18.40;99.90
18454;DHT22;9356;52.202;20.950;2023-09-19T03:57:48;18.40;99.90
18454;DHT22;9356;52.202;20.950;2023-09-19T03:58:52;18.40;99.90
18454;DHT22;9356;52.202;20.950;2023-09-19T03:59:58;18.30;99.90
18454;DHT22;9356;52.202;20.950;2023-09-19T04:01:01;18.40;99.90
18454;DHT22;9356;52.202;20.950;2023-09-19T04:02:08;18.30;99.90
18454;DHT22;9356;52.202;20.950;2023-09-19T04:03:25;18.40;99.90
18454;DHT22;9356;52.202;20.950;2023-09-19T04:04:39;18.40;99.90
18454;DHT22;9356;52.202;20.950;2023-09-19T04:05:46;18.40;99.90
18454;DHT22;9356;52.202;20.950;2023-09-19T04:06:57;18.40;99.90
18454;DHT22;9356;52.202;20.950;2023-09-19T04:08:02;18.40;99.90
18454;DHT22;9356;52.202;20.950;2023-09-19T04:09:06;18.40;99.90
18454;DHT22;9356;52.202;20.950;2023-09-19T04:10:10;18.40;99.90
18454;DHT22;9356;52.202;20.950;2023-09-19T04:11:20;18.40;99.90
18454;DHT22;9356;52.202;20.950;2023-09-19T04:12:23;18.40;99.90
18454;DHT22;9356;52.202;20.950;2023-09-19T04:13:29;18.40;99.90
18454;DHT22;9356;52.202;20.950;2023-09-19T04:14:34;18.40;99.90
18454;DHT22;9356;52.202;20.950;2023-09-19T04:15:38;18.40;99.90
18454;DHT22;9356;52.202;20.950;2023-09-19T04:16:50;18.40;99.90
18454;DHT22;9356;52.202;20.950;2023-09-19T04:17:56;18.40;99.90
18454;DHT22;9356;52.202;20.950;2023-09-19T04:18:59;18.30;99.90
18454;DHT22;9356;52.202;20.950;2023-09-19T04:20:09;18.40;99.90
18454;DHT22;9356;52.202;20.950;2023-09-19T04:21:14;18.30;99.90
18454;DHT22;9356;52.202;20.950;2023-09-19T04:22:22;18.30;99.90
18454;DHT22;9356;52.202;20.950;2023-09-19T04:23:26;18.30;99.90
18454;DHT22;9356;52.202;20.950;2023-09-19T04:24:30;18.30;99.90
18454;DHT22;9356;52.202;20.950;2023-09-19T04:25:34;18.30;99.90
18454;DHT22;9356;52.202;20.950;2023-09-19T04:26:43;18.30;99.90
18454;DHT22;9356;52.202;20.950;2023-09-19T04:27:49;18.30;99.90
18454;DHT22;9356;52.202;20.950;2023-09-19T04:28:53;18.40;99.90
18454;DHT22;9356;52.202;20.950;2023-09-19T04:29:59;18.30;99.90
18454;DHT22;9356;52.202;20.950;2023-09-19T04:31:06;18.30;99.90
18454;DHT22;9356;52.202;20.950;2023-09-19T04:32:14;18.30;99.90
18454;DHT22;9356;52.202;20.950;2023-09-19T04:33:20;18.30;99.90
18454;DHT22;9356;52.202;20.950;2023-09-19T04:34:25;18.30;99.90
18454;DHT22;9356;52.202;20.950;2023-09-19T04:35:34;18.20;99.90
18454;DHT22;9356;52.202;20.950;2023-09-19T04:36:38;18.20;99.90
18454;DHT22;9356;52.202;20.950;2023-09-19T04:37:46;18.20;99.90
18454;DHT22;9356;52.202;20.950;2023-09-19T04:38:50;18.30;99.90
18454;DHT22;9356;52.202;20.950;2023-09-19T04:39:59;18.30;99.90
18454;DHT22;9356;52.202;20.950;2023-09-19T04:41:05;18.30;99.90
18454;DHT22;9356;52.202;20.950;2023-09-19T04:42:09;18.30;99.90
18454;DHT22;9356;52.202;20.950;2023-09-19T04:43:14;18.30;99.90
18454;DHT22;9356;52.202;20.950;2023-09-19T04:44:21;18.30;99.90
18454;DHT22;9356;52.202;20.950;2023-09-19T04:45:30;18.30;99.90
18454;DHT22;9356;52.202;20.950;2023-09-19T04:46:39;18.30;99.90
18454;DHT22;9356;52.202;20.950;2023-09-19T04:47:42;18.30;99.90
18454;DHT22;9356;52.202;20.950;2023-09-19T04:48:49;18.40;99.90
18454;DHT22;9356;52.202;20.950;2023-09-19T04:49:54;18.40;99.90
18454;DHT22;9356;52.202;20.950;2023-09-19T04:50:59;19.40;99.90
18454;DHT22;9356;52.202;20.950;2023-09-19T04:52:06;18.30;99.90
18454;DHT22;9356;52.202;20.950;2023-09-19T04:53:14;18.30;99.90
18454;DHT22;9356;52.202;20.950;2023-09-19T04:54:17;18.30;99.90
18454;DHT22;9356;52.202;20.950;2023-09-19T04:55:24;18.30;99.90
18454;DHT22;9356;52.202;20.950;2023-09-19T04:56:29;18.50;99.90
18454;DHT22;9356;52.202;20.950;2023-09-19T04:57:34;18.40;99.90
18454;DHT22;9356;52.202;20.950;2023-09-19T04:58:37;18.40;99.90
18454;DHT22;9356;52.202;20.950;2023-09-19T04:59:43;18.40;99.90
18454;DHT22;9356;52.202;20.950;2023-09-19T05:00:49;18.30;99.90
18454;DHT22;9356;52.202;20.950;2023-09-19T05:01:57;18.30;99.90
18454;DHT22;9356;52.202;20.950;2023-09-19T05:03:02;18.30;99.90
18454;DHT22;9356;52.202;20.950;2023-09-19T05:04:08;18.30;99.90
18454;DHT22;9356;52.202;20.950;2023-09-19T05:05:11;18.30;99.90
18454;DHT22;9356;52.202;20.950;2023-09-19T05:06:23;18.30;99.90
18454;DHT22;9356;52.202;20.950;2023-09-19T05:07:28;18.40;99.90
18454;DHT22;9356;52.202;20.950;2023-09-19T05:08:34;18.40;99.90
18454;DHT22;9356;52.202;20.950;2023-09-19T05:09:42;18.50;99.90
18454;DHT22;9356;52.202;20.950;2023-09-19T05:10:51;18.50;99.90
18454;DHT22;9356;52.202;20.950;2023-09-19T05:11:57;18.50;99.90
18454;DHT22;9356;52.202;20.950;2023-09-19T05:13:01;18.60;99.90
18454;DHT22;9356;52.202;20.950;2023-09-19T05:14:07;18.60;99.90
18454;DHT22;9356;52.202;20.950;2023-09-19T05:15:10;18.60;99.90
18454;DHT22;9356;52.202;20.950;2023-09-19T05:16:17;18.70;99.90
18454;DHT22;9356;52.202;20.950;2023-09-19T05:17:23;18.60;99.90
18454;DHT22;9356;52.202;20.950;2023-09-19T05:18:27;18.70;99.90
18454;DHT22;9356;52.202;20.950;2023-09-19T05:19:33;18.70;99.90
18454;DHT22;9356;52.202;20.950;2023-09-19T05:20:38;18.70;99.90
18454;DHT22;9356;52.202;20.950;2023-09-19T05:21:46;18.80;99.90
18454;DHT22;9356;52.202;20.950;2023-09-19T05:22:49;18.80;99.90
18454;DHT22;9356;52.202;20.950;2023-09-19T05:23:55;18.80;99.90
18454;DHT22;9356;52.202;20.950;2023-09-19T05:24:59;18.80;99.90
18454;DHT22;9356;52.202;20.950;2023-09-19T05:26:05;18.70;99.90
18454;DHT22;9356;52.202;20.950;2023-09-19T05:27:09;18.70;99.90
18454;DHT22;9356;52.202;20.950;2023-09-19T05:28:13;18.70;99.90
18454;DHT22;9356;52.202;20.950;2023-09-19T05:29:22;18.70;99.90
18454;DHT22;9356;52.202;20.950;2023-09-19T05:30:25;18.70;99.90
18454;DHT22;9356;52.202;20.950;2023-09-19T05:31:33;18.70;99.90
18454;DHT22;9356;52.202;20.950;2023-09-19T05:32:39;18.70;99.90
18454;DHT22;9356;52.202;20.950;2023-09-19T05:33:46;18.70;99.90
18454;DHT22;9356;52.202;20.950;2023-09-19T05:34:51;18.70;99.90
18454;DHT22;9356;52.202;20.950;2023-09-19T05:35:56;18.60;99.90
18454;DHT22;9356;52.202;20.950;2023-09-19T05:37:06;18.60;99.90
18454;DHT22;9356;52.202;20.950;2023-09-19T05:38:27;18.60;99.90
18454;DHT22;9356;52.202;20.950;2023-09-19T05:39:34;18.60;99.90
18454;DHT22;9356;52.202;20.950;2023-09-19T05:40:41;18.60;99.90
18454;DHT22;9356;52.202;20.950;2023-09-19T05:41:45;18.60;99.90
18454;DHT22;9356;52.202;20.950;2023-09-19T05:42:49;18.60;99.90
18454;DHT22;9356;52.202;20.950;2023-09-19T05:43:52;18.60;99.90
18454;DHT22;9356;52.202;20.950;2023-09-19T05:45:08;18.70;99.90
18454;DHT22;9356;52.202;20.950;2023-09-19T05:46:14;18.70;99.90
18454;DHT22;9356;52.202;20.950;2023-09-19T05:47:21;18.70;99.90
18454;DHT22;9356;52.202;20.950;2023-09-19T05:48:25;20.70;99.90
18454;DHT22;9356;52.202;20.950;2023-09-19T05:49:30;18.70;99.90
18454;DHT22;9356;52.202;20.950;2023-09-19T05:50:38;18.70;99.90
18454;DHT22;9356;52.202;20.950;2023-09-19T05:51:43;18.70;99.90
18454;DHT22;9356;52.202;20.950;2023-09-19T05:52:52;18.80;99.90
18454;DHT22;9356;52.202;20.950;2023-09-19T05:53:57;18.70;99.90
18454;DHT22;9356;52.202;20.950;2023-09-19T05:55:01;18.80;99.90
18454;DHT22;9356;52.202;20.950;2023-09-19T05:56:07;18.80;99.90
18454;DHT22;9356;52.202;20.950;2023-09-19T05:57:13;18.80;99.90
18454;DHT22;9356;52.202;20.950;2023-09-19T05:58:18;18.80;99.90
18454;DHT22;9356;52.202;20.950;2023-09-19T05:59:22;18.80;99.90
18454;DHT22;9356;52.202;20.950;2023-09-19T06:00:27;18.80;99.90
18454;DHT22;9356;52.202;20.950;2023-09-19T06:01:32;18.00;99.90
18454;DHT22;9356;52.202;20.950;2023-09-19T06:02:37;18.80;99.90
18454;DHT22;9356;52.202;20.950;2023-09-19T06:03:42;18.90;99.90
18454;DHT22;9356;52.202;20.950;2023-09-19T06:04:49;18.90;99.90
18454;DHT22;9356;52.202;20.950;2023-09-19T06:05:55;18.90;99.90
18454;DHT22;9356;52.202;20.950;2023-09-19T06:07:02;18.90;99.90
18454;DHT22;9356;52.202;20.950;2023-09-19T06:08:12;18.90;99.90
18454;DHT22;9356;52.202;20.950;2023-09-19T06:09:17;16.10;99.90
18454;DHT22;9356;52.202;20.950;2023-09-19T06:10:24;19.00;99.90
18454;DHT22;9356;52.202;20.950;2023-09-19T06:11:35;19.10;99.90
18454;DHT22;9356;52.202;20.950;2023-09-19T06:12:42;19.20;99.90
18454;DHT22;9356;52.202;20.950;2023-09-19T06:13:53;19.20;99.90
18454;DHT22;9356;52.202;20.950;2023-09-19T06:14:59;19.30;99.90
18454;DHT22;9356;52.202;20.950;2023-09-19T06:16:05;19.40;99.90
18454;DHT22;9356;52.202;20.950;2023-09-19T06:17:11;19.50;99.90
18454;DHT22;9356;52.202;20.950;2023-09-19T06:18:13;19.60;99.90
18454;DHT22;9356;52.202;20.950;2023-09-19T06:19:25;19.70;99.90
18454;DHT22;9356;52.202;20.950;2023-09-19T06:20:31;17.70;99.90
18454;DHT22;9356;52.202;20.950;2023-09-19T06:21:37;19.80;99.90
18454;DHT22;9356;52.202;20.950;2023-09-19T06:22:42;19.90;99.90
18454;DHT22;9356;52.202;20.950;2023-09-19T06:23:47;22.40;99.90
18454;DHT22;9356;52.202;20.950;2023-09-19T06:24:50;20.00;99.90
18454;DHT22;9356;52.202;20.950;2023-09-19T06:26:00;20.00;99.90
18454;DHT22;9356;52.202;20.950;2023-09-19T06:27:03;20.00;99.90
18454;DHT22;9356;52.202;20.950;2023-09-19T06:28:12;20.10;99.90
18454;DHT22;9356;52.202;20.950;2023-09-19T06:29:22;20.10;99.90
18454;DHT22;9356;52.202;20.950;2023-09-19T06:30:27;20.10;99.90
18454;DHT22;9356;52.202;20.950;2023-09-19T06:31:35;20.10;99.90
18454;DHT22;9356;52.202;20.950;2023-09-19T06:32:44;20.00;99.90
18454;DHT22;9356;52.202;20.950;2023-09-19T06:33:47;20.00;99.90
18454;DHT22;9356;52.202;20.950;2023-09-19T06:34:55;20.10;99.90
18454;DHT22;9356;52.202;20.950;2023-09-19T06:36:06;20.10;99.90
18454;DHT22;9356;52.202;20.950;2023-09-19T06:37:14;20.10;99.90
18454;DHT22;9356;52.202;20.950;2023-09-19T06:38:22;20.20;99.90
18454;DHT22;9356;52.202;20.950;2023-09-19T06:39:29;20.30;99.90
18454;DHT22;9356;52.202;20.950;2023-09-19T06:40:42;20.40;99.90
18454;DHT22;9356;52.202;20.950;2023-09-19T06:41:48;20.40;99.90
18454;DHT22;9356;52.202;20.950;2023-09-19T06:42:52;19.60;99.90
18454;DHT22;9356;52.202;20.950;2023-09-19T06:43:59;20.60;99.90
18454;DHT22;9356;52.202;20.950;2023-09-19T06:45:03;20.60;99.90
18454;DHT22;9356;52.202;20.950;2023-09-19T06:46:10;20.80;99.90
18454;DHT22;9356;52.202;20.950;2023-09-19T06:47:17;20.80;99.90
18454;DHT22;9356;52.202;20.950;2023-09-19T06:48:25;20.90;99.90
18454;DHT22;9356;52.202;20.950;2023-09-19T06:49:29;21.00;99.90
18454;DHT22;9356;52.202;20.950;2023-09-19T06:50:33;21.10;99.90
18454;DHT22;9356;52.202;20.950;2023-09-19T06:51:37;21.10;99.90
18454;DHT22;9356;52.202;20.950;2023-09-19T06:52:46;21.10;99.90
18454;DHT22;9356;52.202;20.950;2023-09-19T06:53:50;22.50;99.90
18454;DHT22;9356;52.202;20.950;2023-09-19T06:55:02;21.20;99.90
18454;DHT22;9356;52.202;20.950;2023-09-19T06:56:05;21.20;99.90
18454;DHT22;9356;52.202;20.950;2023-09-19T06:57:12;21.20;99.90
18454;DHT22;9356;52.202;20.950;2023-09-19T06:58:16;21.30;99.90
18454;DHT22;9356;52.202;20.950;2023-09-19T06:59:21;21.50;99.90
18454;DHT22;9356;52.202;20.950;2023-09-19T07:00:26;21.50;99.90
18454;DHT22;9356;52.202;20.950;2023-09-19T07:01:34;21.70;99.90
18454;DHT22;9356;52.202;20.950;2023-09-19T07:02:38;21.80;99.90
18454;DHT22;9356;52.202;20.950;2023-09-19T07:03:44;21.80;99.70
18454;DHT22;9356;52.202;20.950;2023-09-19T07:04:54;21.80;99.80
18454;DHT22;9356;52.202;20.950;2023-09-19T07:06:01;21.80;99.20
18454;DHT22;9356;52.202;20.950;2023-09-19T07:07:09;21.90;99.60
18454;DHT22;9356;52.202;20.950;2023-09-19T07:08:17;21.90;99.70
18454;DHT22;9356;52.202;20.950;2023-09-19T07:09:21;22.00;99.40
18454;DHT22;9356;52.202;20.950;2023-09-19T07:10:27;22.00;99.20
18454;DHT22;9356;52.202;20.950;2023-09-19T07:11:32;22.10;98.90
18454;DHT22;9356;52.202;20.950;2023-09-19T07:12:38;22.10;98.70
18454;DHT22;9356;52.202;20.950;2023-09-19T07:13:46;22.20;99.00
18454;DHT22;9356;52.202;20.950;2023-09-19T07:14:50;19.60;98.00
18454;DHT22;9356;52.202;20.950;2023-09-19T07:15:54;22.40;99.10
18454;DHT22;9356;52.202;20.950;2023-09-19T07:16:59;22.50;98.90
18454;DHT22;9356;52.202;20.950;2023-09-19T07:18:05;22.50;98.10
18454;DHT22;9356;52.202;20.950;2023-09-19T07:19:10;22.60;98.40
18454;DHT22;9356;52.202;20.950;2023-09-19T07:20:21;22.70;98.20